createdAt,value
2017-07-15T00:02:23.681Z,3.97
2017-07-15T00:04:55.952Z,5.70
2017-07-15T00:07:28.360Z,6.30
2017-07-15T00:10:00.937Z,8.57
2017-07-15T00:12:33.285Z,6.33
2017-07-15T00:15:05.820Z,9.87
2017-07-15T00:17:38.369Z,8.03
2017-07-15T00:20:10.740Z,10.27
2017-07-15T00:22:43.106Z,4.17
2017-07-15T00:25:15.566Z,4.03
2017-07-15T00:27:47.922Z,4.10
2017-07-15T00:30:20.497Z,5.27
2017-07-15T00:32:52.760Z,4.37
2017-07-15T00:35:25.213Z,4.80
2017-07-15T00:37:57.910Z,3.90
2017-07-15T00:40:30.122Z,5.67
2017-07-15T00:43:02.436Z,9.53
2017-07-15T00:45:34.926Z,4.90
2017-07-15T00:48:07.340Z,3.77
2017-07-15T00:50:39.868Z,4.53
2017-07-15T00:53:12.286Z,3.03
2017-07-15T00:55:44.920Z,7.93
2017-07-15T00:58:17.214Z,7.60
2017-07-15T01:00:49.634Z,8.87
2017-07-15T01:03:21.886Z,6.17
2017-07-15T01:05:54.384Z,4.83
2017-07-15T01:08:33.809Z,6.80
2017-07-15T01:11:06.387Z,6.00
2017-07-15T01:13:38.861Z,5.57
2017-07-15T01:16:11.129Z,5.07
2017-07-15T01:18:43.682Z,4.83
2017-07-15T01:21:16.143Z,9.03
2017-07-15T01:23:48.557Z,3.07
2017-07-15T01:26:21.010Z,5.93
2017-07-15T01:28:53.302Z,6.67
2017-07-15T01:31:25.669Z,9.37
2017-07-15T01:33:58.181Z,3.90
2017-07-15T01:36:30.611Z,6.23
2017-07-15T01:39:02.953Z,3.73
2017-07-15T01:41:35.352Z,7.67
2017-07-15T01:44:07.617Z,4.30
2017-07-15T01:46:40.107Z,6.17
2017-07-15T01:49:12.540Z,3.63
2017-07-15T01:51:44.947Z,3.23
2017-07-15T01:54:17.341Z,5.30
2017-07-15T01:56:49.813Z,8.43
2017-07-15T01:59:22.252Z,5.73
2017-07-15T02:01:54.621Z,6.80
2017-07-15T02:04:27.002Z,8.50
2017-07-15T02:07:00.392Z,6.83
2017-07-15T02:09:32.853Z,5.50
2017-07-15T02:12:05.261Z,7.33
2017-07-15T02:14:37.641Z,5.00
2017-07-15T02:17:10.113Z,3.90
2017-07-15T02:19:42.490Z,7.23
2017-07-15T02:22:14.881Z,9.40
2017-07-15T02:24:47.347Z,5.93
2017-07-15T02:27:19.932Z,4.60
2017-07-15T02:29:52.281Z,7.37
2017-07-15T02:32:24.794Z,9.23
2017-07-15T02:34:57.328Z,7.30
2017-07-15T02:37:29.848Z,8.63
2017-07-15T02:40:02.385Z,5.27
2017-07-15T02:42:34.876Z,4.97
2017-07-15T02:45:07.341Z,6.20
2017-07-15T02:47:39.888Z,5.77
2017-07-15T02:50:12.252Z,7.77
2017-07-15T02:52:44.761Z,6.60
2017-07-15T02:55:17.153Z,6.80
2017-07-15T02:57:49.758Z,9.20
2017-07-15T03:00:22.109Z,6.40
2017-07-15T03:02:54.649Z,11.60
2017-07-15T03:05:26.961Z,9.50
2017-07-15T03:07:59.369Z,6.63
2017-07-15T03:10:31.717Z,7.40
2017-07-15T03:13:04.188Z,10.13
2017-07-15T03:15:36.532Z,8.57
2017-07-15T03:18:08.929Z,10.90
2017-07-15T03:20:41.402Z,8.73
2017-07-15T03:23:13.777Z,7.70
2017-07-15T03:25:46.236Z,11.23
2017-07-15T03:28:18.689Z,12.47
2017-07-15T03:30:50.890Z,10.00
2017-07-15T03:33:23.290Z,9.67
2017-07-15T03:35:55.621Z,9.83
2017-07-15T03:38:28.126Z,9.97
2017-07-15T03:41:00.547Z,10.23
2017-07-15T03:43:32.949Z,9.73
2017-07-15T03:46:05.417Z,9.43
2017-07-15T03:48:37.917Z,11.70
2017-07-15T03:51:10.214Z,14.23
2017-07-15T03:53:42.766Z,13.00
2017-07-15T03:56:15.024Z,11.60
2017-07-15T03:58:47.904Z,12.10
2017-07-15T04:01:19.941Z,13.10
2017-07-15T04:03:52.365Z,10.00
2017-07-15T04:06:24.614Z,14.20
2017-07-15T04:08:57.125Z,17.27
2017-07-15T04:11:29.452Z,12.90
2017-07-15T04:14:01.937Z,10.90
2017-07-15T04:16:34.414Z,11.37
2017-07-15T04:19:06.913Z,14.90
2017-07-15T04:21:39.392Z,14.27
2017-07-15T04:24:11.852Z,10.07
2017-07-15T04:26:44.284Z,10.90
2017-07-15T04:29:16.825Z,10.83
2017-07-15T04:31:49.226Z,11.80
2017-07-15T04:34:21.774Z,13.43
2017-07-15T04:36:54.239Z,11.20
2017-07-15T04:39:27.538Z,9.40
2017-07-15T04:41:59.946Z,14.37
2017-07-15T04:44:32.261Z,10.40
2017-07-15T04:47:04.679Z,9.67
2017-07-15T04:49:37.397Z,11.60
2017-07-15T04:52:09.501Z,17.00
2017-07-15T04:54:42.000Z,11.43
2017-07-15T04:57:14.385Z,11.00
2017-07-15T04:59:47.862Z,10.20
2017-07-15T05:02:20.297Z,11.00
2017-07-15T05:04:52.833Z,9.93
2017-07-15T05:07:25.156Z,11.43
2017-07-15T05:09:57.633Z,13.40
2017-07-15T05:12:30.031Z,8.83
2017-07-15T05:15:02.491Z,9.97
2017-07-15T05:17:34.912Z,10.70
2017-07-15T05:20:07.378Z,10.13
2017-07-15T05:22:39.756Z,6.83
2017-07-15T05:25:12.338Z,7.03
2017-07-15T05:27:44.841Z,5.37
2017-07-15T05:30:17.082Z,6.03
2017-07-15T05:32:49.465Z,9.13
2017-07-15T05:35:22.021Z,7.30
2017-07-15T05:37:54.402Z,5.87
2017-07-15T05:40:26.901Z,6.40
2017-07-15T05:42:59.235Z,6.10
2017-07-15T05:45:31.641Z,6.53
2017-07-15T05:48:04.093Z,7.50
2017-07-15T05:50:36.693Z,5.57
2017-07-15T05:53:09.136Z,5.40
2017-07-15T05:55:41.471Z,5.70
2017-07-15T05:58:13.850Z,6.90
2017-07-15T06:00:46.273Z,8.20
2017-07-15T06:03:18.681Z,6.97
2017-07-15T06:05:51.020Z,5.87
2017-07-15T06:08:23.478Z,4.20
2017-07-15T06:10:55.913Z,6.70
2017-07-15T06:13:28.426Z,4.27
2017-07-15T06:16:01.013Z,5.60
2017-07-15T06:18:33.459Z,8.10
2017-07-15T06:21:05.877Z,7.67
2017-07-15T06:23:38.317Z,5.37
2017-07-15T06:26:10.611Z,5.37
2017-07-15T06:28:43.135Z,6.60
2017-07-15T06:31:15.463Z,5.87
2017-07-15T06:33:48.139Z,6.83
2017-07-15T06:36:20.303Z,5.50
2017-07-15T06:38:52.861Z,5.50
2017-07-15T06:41:25.235Z,4.87
2017-07-15T06:43:57.458Z,3.90
2017-07-15T06:46:29.818Z,4.10
2017-07-15T06:49:02.044Z,4.07
2017-07-15T06:51:34.521Z,7.40
2017-07-15T06:54:07.218Z,4.80
2017-07-15T06:56:39.595Z,5.60
2017-07-15T06:59:11.954Z,4.50
2017-07-15T07:01:44.421Z,7.03
2017-07-15T07:04:16.926Z,5.63
2017-07-15T07:06:49.319Z,6.40
2017-07-15T07:09:21.679Z,3.80
2017-07-15T07:11:54.051Z,3.27
2017-07-15T07:14:26.503Z,2.90
2017-07-15T07:16:59.100Z,6.00
2017-07-15T07:19:31.549Z,2.60
2017-07-15T07:22:03.816Z,4.80
2017-07-15T07:24:36.072Z,3.73
2017-07-15T07:27:08.283Z,3.07
2017-07-15T07:29:40.752Z,3.10
2017-07-15T07:32:13.086Z,2.20
2017-07-15T07:34:45.290Z,3.47
2017-07-15T07:37:17.764Z,4.70
2017-07-15T07:39:49.993Z,3.87
2017-07-15T07:42:22.412Z,2.40
2017-07-15T07:44:54.952Z,4.53
2017-07-15T07:47:27.457Z,2.77
2017-07-15T07:49:59.786Z,4.00
2017-07-15T07:52:32.097Z,3.60
2017-07-15T07:55:04.393Z,3.30
2017-07-15T07:57:36.797Z,4.10
2017-07-15T08:00:09.348Z,3.90
2017-07-15T08:02:41.758Z,3.97
2017-07-15T08:05:14.185Z,5.07
2017-07-15T08:07:46.553Z,8.80
2017-07-15T08:10:19.030Z,5.93
2017-07-15T08:12:51.257Z,6.53
2017-07-15T08:15:23.628Z,4.53
2017-07-15T08:17:56.037Z,7.93
2017-07-15T08:20:28.346Z,6.40
2017-07-15T08:23:00.778Z,7.47
2017-07-15T08:25:33.014Z,5.37
2017-07-15T08:28:05.270Z,5.93
2017-07-15T08:30:37.509Z,7.17
2017-07-15T08:33:09.901Z,7.57
2017-07-15T08:35:42.143Z,4.97
2017-07-15T08:38:14.675Z,6.10
2017-07-15T08:40:47.013Z,5.30
2017-07-15T08:43:19.426Z,6.77
2017-07-15T08:45:51.860Z,4.93
2017-07-15T08:48:24.245Z,4.50
2017-07-15T08:50:56.514Z,3.90
2017-07-15T08:53:28.874Z,5.10
2017-07-15T08:56:01.017Z,3.63
2017-07-15T08:58:33.417Z,3.90
2017-07-15T09:01:05.683Z,4.40
2017-07-15T09:03:38.075Z,3.73
2017-07-15T09:06:10.417Z,3.50
2017-07-15T09:08:42.722Z,3.90
2017-07-15T09:11:15.039Z,4.53
2017-07-15T09:13:47.483Z,3.20
2017-07-15T09:16:19.813Z,3.73
2017-07-15T09:18:52.154Z,3.03
2017-07-15T09:21:24.467Z,2.77
2017-07-15T09:23:56.728Z,5.20
2017-07-15T09:26:28.993Z,3.63
2017-07-15T09:29:01.476Z,4.07
2017-07-15T09:31:33.745Z,4.50
2017-07-15T09:34:06.235Z,5.87
2017-07-15T09:36:38.549Z,3.10
2017-07-15T09:39:10.929Z,2.73
2017-07-15T09:41:43.343Z,3.20
2017-07-15T09:44:15.428Z,3.17
2017-07-15T09:46:47.718Z,2.27
2017-07-15T09:49:19.986Z,4.03
2017-07-15T09:51:52.301Z,5.17
2017-07-15T09:54:24.751Z,2.77
2017-07-15T09:56:56.913Z,3.60
2017-07-15T09:59:29.213Z,2.80
2017-07-15T10:02:01.460Z,3.97
2017-07-15T10:04:33.797Z,2.80
2017-07-15T10:07:06.018Z,2.60
2017-07-15T10:09:38.196Z,4.50
2017-07-15T10:12:10.369Z,5.03
2017-07-15T10:14:42.552Z,3.17
2017-07-15T10:17:14.937Z,3.30
2017-07-15T10:19:47.417Z,3.30
2017-07-15T10:22:19.693Z,2.80
2017-07-15T10:24:52.081Z,3.80
2017-07-15T10:27:25.222Z,3.23
2017-07-15T10:29:57.945Z,2.63
2017-07-15T10:32:30.246Z,4.20
2017-07-15T10:35:02.598Z,2.73
2017-07-15T10:37:34.865Z,5.03
2017-07-15T10:40:07.319Z,2.60
2017-07-15T10:42:39.785Z,2.53
2017-07-15T10:45:12.081Z,4.30
2017-07-15T10:47:44.377Z,4.33
2017-07-15T10:50:17.598Z,4.93
2017-07-15T10:52:50.089Z,2.47
2017-07-15T10:55:22.413Z,5.53
2017-07-15T10:57:54.694Z,4.17
2017-07-15T11:00:27.100Z,4.10
2017-07-15T11:02:59.446Z,3.80
2017-07-15T11:05:31.790Z,2.23
2017-07-15T11:08:04.083Z,4.43
2017-07-15T11:10:36.437Z,3.57
2017-07-15T11:13:08.714Z,2.03
2017-07-15T11:15:41.110Z,1.30
2017-07-15T11:18:13.461Z,2.60
2017-07-15T11:20:45.825Z,2.77
2017-07-15T11:23:18.072Z,3.50
2017-07-15T11:25:50.459Z,2.40
2017-07-15T11:28:22.854Z,4.53
2017-07-15T11:30:55.120Z,5.90
2017-07-15T11:33:27.473Z,2.97
2017-07-15T11:35:59.874Z,2.40
2017-07-15T11:38:32.128Z,2.23
2017-07-15T11:41:04.499Z,3.10
2017-07-15T11:43:36.871Z,1.80
2017-07-15T11:46:09.160Z,5.77
2017-07-15T11:48:41.511Z,3.27
2017-07-15T11:51:14.129Z,5.10
2017-07-15T11:53:46.433Z,2.63
2017-07-15T11:56:18.745Z,2.60
2017-07-15T11:58:50.994Z,3.40
2017-07-15T12:01:23.390Z,1.70
2017-07-15T12:03:55.855Z,2.73
2017-07-15T12:06:28.133Z,2.13
2017-07-15T12:09:00.501Z,2.07
2017-07-15T12:11:33.042Z,1.73
2017-07-15T12:14:05.353Z,2.00
2017-07-15T12:16:38.637Z,2.13
2017-07-15T12:19:11.124Z,2.53
2017-07-15T12:21:43.572Z,2.10
2017-07-15T12:24:15.886Z,2.20
2017-07-15T12:26:48.165Z,2.70
2017-07-15T12:29:20.528Z,2.03
2017-07-15T12:31:52.803Z,3.33
2017-07-15T12:34:25.010Z,1.70
2017-07-15T12:36:57.366Z,2.00
2017-07-15T12:39:29.682Z,2.93
2017-07-15T12:42:02.060Z,2.50
2017-07-15T12:44:34.442Z,2.37
2017-07-15T12:47:06.845Z,3.10
2017-07-15T12:49:39.190Z,3.97
2017-07-15T12:52:11.581Z,2.77
2017-07-15T12:54:43.786Z,2.23
2017-07-15T12:57:16.975Z,2.80
2017-07-15T12:59:49.681Z,4.03
2017-07-15T13:02:21.825Z,2.00
2017-07-15T13:04:54.137Z,2.60
2017-07-15T13:07:26.600Z,3.23
2017-07-15T13:09:58.910Z,3.20
2017-07-15T13:12:31.382Z,2.43
2017-07-15T13:15:03.729Z,1.73
2017-07-15T13:17:37.077Z,2.50
2017-07-15T13:20:09.522Z,5.13
2017-07-15T13:22:42.022Z,5.10
2017-07-15T13:25:14.267Z,2.23
2017-07-15T13:27:46.773Z,2.00
2017-07-15T13:30:19.110Z,1.50
2017-07-15T13:32:51.518Z,1.43
2017-07-15T13:35:23.837Z,1.63
2017-07-15T13:37:56.265Z,1.77
2017-07-15T13:40:28.613Z,1.60
2017-07-15T13:43:01.149Z,1.03
2017-07-15T13:45:33.557Z,1.03
2017-07-15T13:48:06.027Z,1.67
2017-07-15T13:50:38.389Z,2.97
2017-07-15T13:53:10.869Z,1.70
2017-07-15T13:55:43.137Z,1.83
2017-07-15T13:58:15.485Z,1.33
2017-07-15T14:00:47.759Z,2.50
2017-07-15T14:03:20.185Z,2.43
2017-07-15T14:05:52.601Z,2.23
2017-07-15T14:08:24.874Z,2.40
2017-07-15T14:10:57.157Z,2.30
2017-07-15T14:13:29.589Z,3.33
2017-07-15T14:16:01.861Z,1.47
2017-07-15T14:18:34.203Z,2.43
2017-07-15T14:21:06.564Z,1.67
2017-07-15T14:23:39.155Z,2.30
2017-07-15T14:26:11.489Z,3.17
2017-07-15T14:28:43.921Z,1.30
2017-07-15T14:31:16.262Z,3.20
2017-07-15T14:33:48.583Z,2.00
2017-07-15T14:36:20.966Z,3.03
2017-07-15T14:38:53.284Z,3.23
2017-07-15T14:41:25.711Z,1.23
2017-07-15T14:43:58.021Z,1.50
2017-07-15T14:46:30.343Z,2.73
2017-07-15T14:49:02.756Z,1.47
2017-07-15T14:51:35.149Z,2.17
2017-07-15T14:54:07.589Z,2.73
2017-07-15T14:56:39.989Z,1.53
2017-07-15T14:59:12.205Z,1.73
2017-07-15T15:01:44.428Z,2.27
2017-07-15T15:04:17.829Z,1.67
2017-07-15T15:06:50.228Z,2.27
2017-07-15T15:09:22.612Z,1.53
2017-07-15T15:11:55.042Z,2.23
2017-07-15T15:14:27.275Z,3.90
2017-07-15T15:17:00.224Z,2.23
2017-07-15T15:19:33.036Z,1.27
2017-07-15T15:22:05.281Z,1.70
2017-07-15T15:24:37.749Z,2.60
2017-07-15T15:27:09.901Z,2.70
2017-07-15T15:29:42.206Z,1.50
2017-07-15T15:32:14.535Z,1.87
2017-07-15T15:34:46.927Z,1.33
2017-07-15T15:37:19.227Z,1.53
2017-07-15T15:39:51.493Z,1.17
2017-07-15T15:42:23.581Z,2.03
2017-07-15T15:44:55.879Z,2.13
2017-07-15T15:47:28.187Z,2.63
2017-07-15T15:50:00.646Z,3.93
2017-07-15T15:52:32.936Z,1.50
2017-07-15T15:55:05.199Z,1.30
2017-07-15T15:57:37.448Z,1.43
2017-07-15T16:00:09.819Z,1.43
2017-07-15T16:02:42.095Z,2.07
2017-07-15T16:05:14.414Z,2.30
2017-07-15T16:07:46.952Z,1.43
2017-07-15T16:10:19.253Z,2.50
2017-07-15T16:12:51.697Z,1.40
2017-07-15T16:15:23.872Z,1.80
2017-07-15T16:17:56.204Z,1.10
2017-07-15T16:20:28.694Z,1.47
2017-07-15T16:23:01.048Z,3.63
2017-07-15T16:25:33.379Z,3.87
2017-07-15T16:28:05.653Z,1.57
2017-07-15T16:30:38.349Z,0.93
2017-07-15T16:33:10.680Z,1.90
2017-07-15T16:35:43.123Z,2.80
2017-07-15T16:38:15.575Z,3.37
2017-07-15T16:40:48.083Z,2.70
2017-07-15T16:43:20.170Z,2.20
2017-07-15T16:45:52.403Z,1.47
2017-07-15T16:48:24.659Z,1.93
2017-07-15T16:50:57.061Z,2.40
2017-07-15T16:53:29.381Z,1.23
2017-07-15T16:56:01.771Z,1.53
2017-07-15T16:58:34.029Z,1.47
2017-07-15T17:01:06.209Z,2.00
2017-07-15T17:03:38.453Z,1.40
2017-07-15T17:06:10.790Z,2.30
2017-07-15T17:08:42.963Z,2.60
2017-07-15T17:11:15.424Z,1.80
2017-07-15T17:13:47.660Z,1.10
2017-07-15T17:16:20.108Z,0.93
2017-07-15T17:18:52.467Z,1.07
2017-07-15T17:21:25.156Z,2.60
2017-07-15T17:23:57.475Z,3.40
2017-07-15T17:26:30.464Z,1.13
2017-07-15T17:29:02.248Z,1.83
2017-07-15T17:31:34.636Z,1.20
2017-07-15T17:34:06.960Z,1.63
2017-07-15T17:36:39.307Z,1.27
2017-07-15T17:39:11.804Z,1.50
2017-07-15T17:41:44.434Z,3.07
2017-07-15T17:44:16.827Z,2.13
2017-07-15T17:46:49.115Z,1.93
2017-07-15T17:49:22.099Z,1.20
2017-07-15T17:51:53.949Z,2.80
2017-07-15T17:54:26.619Z,1.87
2017-07-15T17:56:58.708Z,1.50
2017-07-15T17:59:31.182Z,1.90
2017-07-15T18:02:03.438Z,1.57
2017-07-15T18:04:35.870Z,1.20
2017-07-15T18:07:08.257Z,2.50
2017-07-15T18:09:40.322Z,1.73
2017-07-15T18:12:12.507Z,1.30
2017-07-15T18:14:44.828Z,1.17
2017-07-15T18:17:17.164Z,1.13
2017-07-15T18:19:49.530Z,2.00
2017-07-15T18:22:21.803Z,2.00
2017-07-15T18:24:54.126Z,4.47
2017-07-15T18:27:26.443Z,1.60
2017-07-15T18:29:58.829Z,1.90
2017-07-15T18:32:30.972Z,1.53
2017-07-15T18:35:03.197Z,1.40
2017-07-15T18:37:35.443Z,1.20
2017-07-15T18:40:07.812Z,2.07
2017-07-15T18:42:40.047Z,1.90
2017-07-15T18:45:12.447Z,1.30
2017-07-15T18:47:44.719Z,1.90
2017-07-15T18:50:17.026Z,1.07
2017-07-15T18:52:49.471Z,1.50
2017-07-15T18:55:21.669Z,2.13
2017-07-15T18:57:54.039Z,2.00
2017-07-15T19:00:26.315Z,1.60
2017-07-15T19:02:58.701Z,2.73
2017-07-15T19:05:31.074Z,2.77
2017-07-15T19:08:03.284Z,1.97
2017-07-15T19:10:35.647Z,3.67
2017-07-15T19:13:07.862Z,1.83
2017-07-15T19:15:40.227Z,1.60
2017-07-15T19:18:12.554Z,4.00
2017-07-15T19:20:45.025Z,1.90
2017-07-15T19:23:17.304Z,4.60
2017-07-15T19:25:49.873Z,2.20
2017-07-15T19:28:22.115Z,3.43
2017-07-15T19:30:54.463Z,1.90
2017-07-15T19:33:26.765Z,1.50
2017-07-15T19:35:59.203Z,1.70
2017-07-15T19:38:31.503Z,2.03
2017-07-15T19:41:04.118Z,2.10
2017-07-15T19:43:36.370Z,1.77
2017-07-15T19:46:09.637Z,1.83
2017-07-15T19:48:41.972Z,1.70
2017-07-15T19:51:14.451Z,3.23
2017-07-15T19:53:46.733Z,2.70
2017-07-15T19:56:20.285Z,3.10
2017-07-15T19:58:52.760Z,2.37
2017-07-15T20:01:24.759Z,1.93
2017-07-15T20:03:57.129Z,2.30
2017-07-15T20:06:29.598Z,1.90
2017-07-15T20:09:02.031Z,2.67
2017-07-15T20:11:34.559Z,4.27
2017-07-15T20:14:07.002Z,3.17
2017-07-15T20:16:39.329Z,2.40
2017-07-15T20:19:11.656Z,3.20
2017-07-15T20:21:44.121Z,6.63
2017-07-15T20:24:25.717Z,2.63
2017-07-15T20:26:58.795Z,2.40
2017-07-15T20:29:31.032Z,6.90
2017-07-15T20:32:03.404Z,2.60
2017-07-15T20:34:35.789Z,3.00
2017-07-15T20:37:13.736Z,2.23
2017-07-15T20:39:45.495Z,2.70
2017-07-15T20:42:17.766Z,2.30
2017-07-15T20:44:50.025Z,2.80
2017-07-15T20:47:22.286Z,3.70
2017-07-15T20:49:54.730Z,2.80
2017-07-15T20:52:33.181Z,2.97
2017-07-15T20:55:05.435Z,4.40
2017-07-15T20:57:37.917Z,2.87
2017-07-15T21:00:10.241Z,2.60
2017-07-15T21:02:42.666Z,2.70
2017-07-15T21:05:15.209Z,4.00
2017-07-15T21:07:47.485Z,2.93
2017-07-15T21:10:19.884Z,3.10
2017-07-15T21:12:52.293Z,2.83
2017-07-15T21:15:24.612Z,5.40
2017-07-15T21:17:57.149Z,3.40
2017-07-15T21:20:29.652Z,3.00
2017-07-15T21:23:01.772Z,3.43
2017-07-15T21:25:34.121Z,2.83
2017-07-15T21:28:06.512Z,3.53
2017-07-15T21:30:38.896Z,2.63
2017-07-15T21:33:11.342Z,2.87
2017-07-15T21:35:43.631Z,4.30
2017-07-15T21:38:16.973Z,3.60
2017-07-15T21:40:49.385Z,3.43
2017-07-15T21:43:23.061Z,3.97
2017-07-15T21:45:55.194Z,4.87
2017-07-15T21:48:27.769Z,3.40
2017-07-15T21:51:00.101Z,4.40
2017-07-15T21:53:32.857Z,3.13
2017-07-15T21:56:05.029Z,3.80
2017-07-15T21:58:37.265Z,3.60
2017-07-15T22:01:09.575Z,4.27
2017-07-15T22:03:42.009Z,6.00
2017-07-15T22:06:13.889Z,5.77
2017-07-15T22:11:25.763Z,4.80
2017-07-15T22:13:58.129Z,5.70
2017-07-15T22:16:30.566Z,4.47
2017-07-15T22:19:03.011Z,4.17
2017-07-15T22:21:35.370Z,4.33
2017-07-15T22:24:07.717Z,4.60
2017-07-15T22:26:40.245Z,4.20
2017-07-15T22:29:12.493Z,4.57
2017-07-15T22:31:44.857Z,4.37
2017-07-15T22:34:17.182Z,6.63
2017-07-15T22:36:49.573Z,4.77
2017-07-15T22:39:21.980Z,4.00
2017-07-15T22:41:54.321Z,4.20
2017-07-15T22:44:26.837Z,3.77
2017-07-15T22:46:59.221Z,4.77
2017-07-15T22:49:31.550Z,3.80
2017-07-15T22:52:03.958Z,4.73
2017-07-15T22:54:36.220Z,3.47
2017-07-15T22:57:08.549Z,3.20
2017-07-15T22:59:40.974Z,3.57
2017-07-15T23:02:13.417Z,3.63
2017-07-15T23:04:45.803Z,3.63
2017-07-15T23:07:18.077Z,4.17
2017-07-15T23:09:50.637Z,4.03
2017-07-15T23:12:23.024Z,3.53
2017-07-15T23:14:55.485Z,4.13
2017-07-15T23:17:27.870Z,4.00
2017-07-15T23:20:00.316Z,3.60
2017-07-15T23:22:32.711Z,4.23
2017-07-15T23:25:05.202Z,3.87
2017-07-15T23:27:37.887Z,4.87
2017-07-15T23:30:09.735Z,3.90
2017-07-15T23:32:42.102Z,3.80
2017-07-15T23:35:14.544Z,4.23
2017-07-15T23:37:46.938Z,4.10
2017-07-15T23:40:19.244Z,4.50
2017-07-15T23:42:51.651Z,4.13
2017-07-15T23:45:24.296Z,4.07
2017-07-15T23:47:56.641Z,4.00
2017-07-15T23:50:29.193Z,3.60
2017-07-15T23:53:01.544Z,4.03
2017-07-15T23:55:33.936Z,3.60
2017-07-15T23:58:06.285Z,4.20
